Pagrindinis puslapis
METAR-TAF:

METAR-TAF

Oro uostai :

La Pasas, Bolivija

platuma: 16-31S, ilguma: 068-11W, Aukštis: 4058 m

Dabartinis oras

Ataskaita buvo paskelbta 27 minutes, ne 07:00 UTC
Vėjas 5 kt iš Vakarų/Šiaurės Vakarų
Temperatūra 4°C
Drėgmė 87%
Slėgis 1040 hPa
Matomumas 10 km arba daugiau
Išsisklaidę debesys ne aukštis 1200 ft
Išsisklaidę debesys ne aukštis 7000 ft

METAR: SLLP 080700Z 29005KT 9999 SCT012 SCT070 04/02 Q1040

Laikas: 03:27 (07:27 UTC)

Prognozė

Ataskaita buvo paskelbta 3 valandos ir 27 minutes, ne 04:00 UTC
Prognozė galioja nuo 08 metu 06 UTC su 09 metu 06 UTC
Vėjas 6 kt iš Rytų
Matomumas: 4000 m
Mažai debesys ne aukštis 300 ft
Išsisklaidę debesys ne aukštis 1000 ft
Rūkas kaimynystėje
Tapsmas
nuo 08 metu 12 UTC su 08 metu 16 UTC
Vėjas 10 kt iš Pietryčių
Matomumas 10 km arba daugiau
Mažai debesys ne aukštis 1500 ft

TAF: SLLP 080400Z 0806/0906 08006KT 4000E VCFG FEW003 SCT010 TX16/ 0820Z TNM01/0811Z BECMG 0812/0816 14010KT 9999 NSW FEW015

Orai ataskaitas ir orų prognozės (METAR, TAF).

turimą stotys yra geltonos ir raudonos taškus žemėlapyje.

Perkelti pele per norėdami pamatyti stoties vardą.

Tada spustelėkite, norėdami matyti oro stebėjimo ir prognozės.

Norėdami pakeisti žemėlapį: spustelėkite ant žalios mygtukų su juodo kryžiaus žemyn,; žalią mygtuką su brūkšneliu, jei norite nutolinti; arba žalių rodyklių gretimoms žemėlapius.


METAR-TAF: